« Back
NWS Peachtree City, Ga » Text Product » MCN Terminal Aerodrome Forecast


Printer-friendly Version
Current Version              Previous Versions:   1  2  3  4  5  6  7  8  9  

Terminal Aerodrome Forecast

357
FTUS42 KFFC 181606 AAB
TAFMCN
TAF AMD
KMCN 181606Z 1816/1912 26005KT P6SM OVC015
     FM181800 18005KT P6SM VCSH BKN025
     FM190400 11004KT P6SM -RA BKN015
     FM190700 13006KT 3SM -SHRA BR BKN006 OVC012=

USA.gov is the U.S. government's official web portal to all federal, state and local government web resources and services.